Time;durP1;ratioP1;P1;durP2;ratioP2;P2;SDS_P1;SDS_P2;PMS_P1;PMS_P2;Temp;Humidity;BMP_temperature;BMP_pressure;BME280_temperature;BME280_humidity;BME280_pressure;Samples;Min_cycle;Max_cycle;Signal;HPM_P1;HPM_P2
2023/04/02 00:01:49;;;;;;;1.13;0.70;;;11.30;99.90;;;;;;7386657;19;20146;-75
2023/04/02 00:04:21;;;;;;;0.60;0.50;;;11.30;99.90;;;;;;7391058;19;20495;-76
2023/04/02 00:06:56;;;;;;;0.97;0.50;;;11.30;99.90;;;;;;7389200;19;20155;-76
2023/04/02 00:09:29;;;;;;;2.50;0.60;;;11.30;99.90;;;;;;7390372;19;20765;-76
2023/04/02 00:11:56;;;;;;;0.40;0.40;;;11.30;99.90;;;;;;7388019;19;20135;-76
2023/04/02 00:14:25;;;;;;;2.17;0.57;;;11.20;99.90;;;;;;7389515;19;20602;-77
2023/04/02 00:16:54;;;;;;;1.53;1.10;;;11.20;99.90;;;;;;7388300;19;20189;-76
2023/04/02 00:19:51;;;;;;;0.63;0.50;;;11.20;99.90;;;;;;7386620;19;20126;-76
2023/04/02 00:22:25;;;;;;;0.53;0.40;;;11.10;99.90;;;;;;7384907;19;20165;-76
2023/04/02 00:24:53;;;;;;;0.30;0.30;;;11.00;99.90;;;;;;7389934;19;20139;-77
2023/04/02 00:27:20;;;;;;;0.60;0.50;;;11.10;99.90;;;;;;7390364;19;20138;-76
2023/04/02 00:29:54;;;;;;;1.53;0.53;;;11.20;99.90;;;;;;7389880;19;20467;-76
2023/04/02 00:32:24;;;;;;;1.20;0.50;;;11.20;99.90;;;;;;7383607;19;20156;-75
2023/04/02 00:34:50;;;;;;;0.60;0.50;;;11.10;99.90;;;;;;7387281;19;20158;-75
2023/04/02 00:37:26;;;;;;;0.57;0.50;;;11.20;99.90;;;;;;7386364;19;21537;-75
2023/04/02 00:40:08;;;;;;;0.40;0.40;;;11.30;99.90;;;;;;7387734;19;21055;-76
2023/04/02 00:42:37;;;;;;;0.50;0.50;;;11.20;99.90;;;;;;7386788;19;20270;-75
2023/04/02 00:45:03;;;;;;;0.73;0.40;;;11.20;99.90;;;;;;7386310;19;20142;-76
2023/04/02 00:47:35;;;;;;;1.47;0.60;;;11.20;99.90;;;;;;7389214;19;20138;-76
2023/04/02 00:50:10;;;;;;;0.50;0.50;;;11.20;99.90;;;;;;7379771;19;20146;-75
2023/04/02 00:52:38;;;;;;;0.60;0.50;;;11.20;99.90;;;;;;7384262;19;20193;-76
2023/04/02 00:55:23;;;;;;;2.47;0.80;;;11.10;99.90;;;;;;7384349;19;20571;-76
2023/04/02 00:57:50;;;;;;;1.13;0.60;;;11.20;99.90;;;;;;7385211;19;20147;-75
2023/04/02 01:00:37;;;;;;;1.03;0.50;;;11.20;99.90;;;;;;7386684;19;20150;-75
2023/04/02 01:03:15;;;;;;;0.63;0.30;;;11.20;99.90;;;;;;7386079;19;20736;-76
2023/04/02 01:05:43;;;;;;;0.60;0.60;;;11.10;99.90;;;;;;7385338;19;20738;-76
2023/04/02 01:08:40;;;;;;;0.40;0.40;;;11.10;99.90;;;;;;7386810;19;20134;-76
2023/04/02 01:11:18;;;;;;;0.40;0.40;;;11.20;99.90;;;;;;7383320;19;20130;-76
2023/04/02 01:13:49;;;;;;;0.60;0.43;;;11.20;99.90;;;;;;7387948;19;20243;-76
2023/04/02 01:16:14;;;;;;;0.50;0.50;;;11.20;99.90;;;;;;7385311;19;20145;-75
2023/04/02 01:19:13;;;;;;;2.10;0.40;;;11.20;99.90;;;;;;7386311;19;20146;-75
2023/04/02 01:21:52;;;;;;;0.43;0.30;;;11.10;99.90;;;;;;7381759;19;20218;-75
2023/04/02 01:24:20;;;;;;;0.87;0.40;;;11.10;99.90;;;;;;7385133;19;20210;-76
2023/04/02 01:26:45;;;;;;;0.70;0.30;;;11.00;99.90;;;;;;7385060;19;20146;-76
2023/04/02 01:29:13;;;;;;;0.30;0.30;;;11.10;99.90;;;;;;7385544;19;20181;-75
2023/04/02 01:31:40;;;;;;;1.43;0.47;;;11.00;99.90;;;;;;7382978;19;20587;-75
2023/04/02 01:34:13;;;;;;;2.27;0.50;;;11.20;99.90;;;;;;7388216;19;20138;-75
2023/04/02 01:36:54;;;;;;;2.57;0.33;;;10.80;99.90;;;;;;7387578;19;20126;-76
2023/04/02 01:39:38;;;;;;;0.50;0.47;;;11.00;99.90;;;;;;7386700;19;20165;-76
2023/04/02 01:42:22;;;;;;;0.80;0.50;;;11.00;99.90;;;;;;7383637;19;20169;-76
2023/04/02 01:44:53;;;;;;;0.47;0.47;;;11.10;99.90;;;;;;7384851;19;20149;-76
2023/04/02 01:47:24;;;;;;;0.40;0.40;;;11.00;99.90;;;;;;7385348;19;20178;-75
2023/04/02 01:49:55;;;;;;;0.90;0.60;;;10.90;99.90;;;;;;7385297;19;20588;-76
2023/04/02 01:52:40;;;;;;;1.13;0.43;;;11.00;99.90;;;;;;7385759;19;20139;-75
2023/04/02 01:55:14;;;;;;;0.67;0.40;;;11.10;99.90;;;;;;7384791;19;20553;-75
2023/04/02 01:57:45;;;;;;;0.63;0.50;;;11.20;99.90;;;;;;7385920;19;20139;-77
2023/04/02 02:00:14;;;;;;;1.63;0.40;;;11.20;99.90;;;;;;7383742;19;20170;-76
2023/04/02 02:02:41;;;;;;;0.53;0.40;;;11.20;99.90;;;;;;7383892;19;20581;-76
2023/04/02 02:05:16;;;;;;;0.70;0.40;;;11.20;99.90;;;;;;7387692;19;20163;-76
2023/04/02 02:07:43;;;;;;;0.30;0.30;;;11.20;99.90;;;;;;7392089;19;20157;-75
2023/04/02 02:10:15;;;;;;;0.80;0.50;;;11.40;99.90;;;;;;7388334;19;20154;-73
2023/04/02 02:12:43;;;;;;;0.87;0.47;;;11.40;99.90;;;;;;7387774;19;20126;-73
2023/04/02 02:15:15;;;;;;;0.60;0.50;;;11.30;99.90;;;;;;7387772;19;20142;-74
2023/04/02 02:17:42;;;;;;;1.40;0.53;;;11.30;99.90;;;;;;7390202;19;20153;-74
2023/04/02 02:20:09;;;;;;;0.50;0.50;;;11.30;99.90;;;;;;7391412;19;20154;-73
2023/04/02 02:22:38;;;;;;;1.60;0.63;;;11.20;99.90;;;;;;7388633;19;20139;-74
2023/04/02 02:25:26;;;;;;;1.97;0.50;;;11.30;99.90;;;;;;7391231;19;20235;-73
2023/04/02 02:28:20;;;;;;;0.83;0.40;;;11.30;99.90;;;;;;7392448;19;20175;-74
2023/04/02 02:30:58;;;;;;;0.40;0.40;;;11.30;99.90;;;;;;7388097;19;20151;-74
2023/04/02 02:33:25;;;;;;;0.97;0.40;;;11.40;99.90;;;;;;7390608;19;20190;-74
2023/04/02 02:35:54;;;;;;;0.63;0.50;;;11.30;99.90;;;;;;7390974;19;20648;-73
2023/04/02 02:38:29;;;;;;;0.97;0.30;;;11.10;99.90;;;;;;7390512;19;20138;-74
2023/04/02 02:40:59;;;;;;;1.40;0.50;;;11.00;99.90;;;;;;7388914;19;20261;-73
2023/04/02 02:43:26;;;;;;;1.20;0.70;;;11.20;99.90;;;;;;7389946;19;20146;-73
2023/04/02 02:45:55;;;;;;;1.20;0.70;;;11.10;99.90;;;;;;7391522;19;20599;-73
2023/04/02 02:48:31;;;;;;;3.70;0.40;;;11.20;99.90;;;;;;7391999;19;20145;-73
2023/04/02 02:50:59;;;;;;;0.87;0.63;;;11.20;99.90;;;;;;7388542;19;20206;-73
2023/04/02 02:53:25;;;;;;;0.37;0.37;;;11.20;99.90;;;;;;7386083;19;20229;-74
2023/04/02 02:55:56;;;;;;;0.73;0.50;;;11.30;99.90;;;;;;7389445;19;20175;-72
2023/04/02 02:58:26;;;;;;;0.60;0.40;;;11.30;99.90;;;;;;7389388;19;20154;-72
2023/04/02 03:00:53;;;;;;;0.80;0.50;;;11.10;99.90;;;;;;7389249;19;20162;-74
2023/04/02 03:03:23;;;;;;;0.30;0.30;;;11.10;99.90;;;;;;7389151;19;20620;-72
2023/04/02 03:05:52;;;;;;;1.50;0.50;;;11.20;99.90;;;;;;7391039;19;20170;-73
2023/04/02 03:08:28;;;;;;;1.37;0.50;;;11.40;99.90;;;;;;7389487;19;20163;-73
2023/04/02 03:11:41;;;;;;;0.53;0.40;;;11.30;99.90;;;;;;7387297;19;20168;-73
2023/04/02 03:14:29;;;;;;;1.30;0.60;;;11.40;99.90;;;;;;7387020;19;20165;-73
2023/04/02 03:17:22;;;;;;;0.50;0.47;;;11.20;99.90;;;;;;7386150;19;20154;-73
2023/04/02 03:20:09;;;;;;;0.67;0.40;;;11.20;99.90;;;;;;7390309;19;20163;-73
2023/04/02 03:22:41;;;;;;;0.93;0.40;;;11.10;99.90;;;;;;7388287;19;20166;-72
2023/04/02 03:25:22;;;;;;;0.67;0.67;;;11.20;99.90;;;;;;7388902;19;20214;-74
2023/04/02 03:27:52;;;;;;;0.40;0.40;;;11.30;99.90;;;;;;7387693;19;20145;-73
2023/04/02 03:30:29;;;;;;;0.40;0.30;;;11.00;99.90;;;;;;7386990;19;20174;-72
2023/04/02 03:33:01;;;;;;;0.30;0.30;;;11.00;99.90;;;;;;7386806;19;20145;-73
2023/04/02 03:35:39;;;;;;;0.40;0.40;;;11.10;99.90;;;;;;7390659;19;20139;-73
2023/04/02 03:38:43;;;;;;;1.40;0.50;;;11.10;99.90;;;;;;7390799;19;20230;-74
2023/04/02 03:41:14;;;;;;;3.43;0.50;;;11.20;99.90;;;;;;7383643;19;20181;-74
2023/04/02 03:43:45;;;;;;;1.47;0.70;;;11.30;99.90;;;;;;7385925;19;20151;-75
2023/04/02 03:46:30;;;;;;;1.30;0.60;;;11.30;99.90;;;;;;7388268;19;20538;-74
2023/04/02 03:49:25;;;;;;;0.50;0.40;;;11.30;99.90;;;;;;7389175;19;20146;-74
2023/04/02 03:52:10;;;;;;;1.67;0.60;;;11.30;99.90;;;;;;7382875;19;20166;-73
2023/04/02 03:54:37;;;;;;;0.80;0.50;;;11.30;99.90;;;;;;7386086;19;20267;-74
2023/04/02 03:57:04;;;;;;;0.43;0.43;;;11.40;99.90;;;;;;7388080;19;20505;-73
2023/04/02 03:59:47;;;;;;;0.97;0.60;;;11.40;99.90;;;;;;7387885;19;21261;-74
2023/04/02 04:02:25;;;;;;;0.47;0.47;;;11.30;99.90;;;;;;7387260;19;20138;-73
2023/04/02 04:04:54;;;;;;;1.57;0.57;;;11.40;99.90;;;;;;7386246;19;20139;-73
2023/04/02 04:07:40;;;;;;;0.40;0.40;;;11.30;99.90;;;;;;7387182;19;20158;-73
2023/04/02 04:10:14;;;;;;;1.90;0.50;;;11.30;99.90;;;;;;7386852;19;20134;-73
2023/04/02 04:12:45;;;;;;;1.00;0.60;;;11.20;99.90;;;;;;7385988;19;20543;-74
2023/04/02 04:15:19;;;;;;;1.93;0.53;;;11.20;99.90;;;;;;7386783;19;20381;-73
2023/04/02 04:18:12;;;;;;;0.30;0.30;;;11.20;99.90;;;;;;7387107;19;20146;-72
2023/04/02 04:20:55;;;;;;;1.63;0.40;;;11.20;99.90;;;;;;7386506;19;20150;-73
2023/04/02 04:23:34;;;;;;;0.67;0.40;;;11.20;99.90;;;;;;7386606;19;20833;-72
2023/04/02 04:26:33;;;;;;;0.47;0.40;;;11.20;99.90;;;;;;7385712;19;20151;-73
2023/04/02 04:29:14;;;;;;;1.03;0.40;;;11.30;99.90;;;;;;7386846;19;20150;-74
2023/04/02 04:31:54;;;;;;;0.97;0.50;;;11.30;99.90;;;;;;7383985;19;20515;-74
2023/04/02 04:34:26;;;;;;;0.57;0.50;;;11.30;99.90;;;;;;7385406;19;20130;-73
2023/04/02 04:36:55;;;;;;;1.33;0.40;;;11.30;99.90;;;;;;7390483;19;20457;-73
2023/04/02 04:39:41;;;;;;;0.50;0.33;;;11.20;99.90;;;;;;7386145;19;20478;-74
2023/04/02 04:42:16;;;;;;;0.50;0.30;;;11.20;99.90;;;;;;7382114;19;20142;-74
2023/04/02 04:45:12;;;;;;;0.50;0.50;;;11.20;99.90;;;;;;7382090;19;20250;-73
2023/04/02 04:47:42;;;;;;;0.40;0.40;;;11.20;99.90;;;;;;7386081;19;20146;-73
2023/04/02 04:50:32;;;;;;;0.97;0.40;;;11.10;99.90;;;;;;7385247;19;20154;-74
2023/04/02 04:53:06;;;;;;;0.93;0.60;;;11.30;99.90;;;;;;7384894;19;20137;-74
2023/04/02 04:55:39;;;;;;;0.70;0.40;;;11.30;99.90;;;;;;7386376;19;20140;-74
2023/04/02 04:58:45;;;;;;;2.87;0.37;;;11.20;99.90;;;;;;7387971;19;20143;-74
2023/04/02 05:01:28;;;;;;;1.80;0.47;;;11.10;99.90;;;;;;7383779;19;20137;-74
2023/04/02 05:04:12;;;;;;;0.60;0.40;;;11.20;99.90;;;;;;7385728;19;20146;-74
2023/04/02 05:07:00;;;;;;;0.73;0.60;;;11.10;99.90;;;;;;7387591;19;20145;-73
2023/04/02 05:09:57;;;;;;;1.20;0.63;;;11.30;99.90;;;;;;7386803;19;20137;-73
2023/04/02 05:12:40;;;;;;;0.40;0.40;;;11.20;99.90;;;;;;7384466;19;20745;-73
2023/04/02 05:15:21;;;;;;;1.27;0.60;;;11.20;99.90;;;;;;7384227;19;20482;-74
2023/04/02 05:18:30;;;;;;;0.30;0.30;;;11.00;99.90;;;;;;7383589;19;20194;-74
2023/04/02 05:21:18;;;;;;;0.47;0.40;;;11.00;99.90;;;;;;7385041;19;20145;-73
2023/04/02 05:24:06;;;;;;;0.30;0.30;;;11.10;99.90;;;;;;7384967;19;20496;-73
2023/04/02 05:26:39;;;;;;;0.53;0.43;;;11.20;99.90;;;;;;7384573;19;20134;-74
2023/04/02 05:29:24;;;;;;;1.53;0.50;;;11.20;99.90;;;;;;7384053;19;20134;-72
2023/04/02 05:32:00;;;;;;;0.40;0.40;;;11.20;99.90;;;;;;7382857;19;20150;-73
2023/04/02 05:34:36;;;;;;;1.80;0.47;;;11.30;99.90;;;;;;7386257;19;20134;-73
2023/04/02 05:37:03;;;;;;;0.90;0.57;;;11.50;99.90;;;;;;7383016;19;20130;-74
2023/04/02 05:39:31;;;;;;;0.93;0.40;;;11.20;99.90;;;;;;7385772;19;20145;-74
2023/04/02 05:42:16;;;;;;;0.60;0.60;;;11.30;99.90;;;;;;7389081;19;20474;-73
2023/04/02 05:45:16;;;;;;;0.57;0.40;;;11.40;99.90;;;;;;7393917;19;20141;-73
2023/04/02 05:47:45;;;;;;;0.67;0.50;;;11.40;99.90;;;;;;7390156;19;20175;-73
2023/04/02 05:50:18;;;;;;;1.50;0.67;;;11.40;99.90;;;;;;7390508;19;20138;-72
2023/04/02 05:52:52;;;;;;;0.73;0.50;;;11.40;99.90;;;;;;7390856;19;20180;-73
2023/04/02 05:55:21;;;;;;;1.43;0.50;;;11.40;99.90;;;;;;7392319;19;22185;-74
2023/04/02 05:57:54;;;;;;;0.70;0.47;;;11.40;99.90;;;;;;7391883;19;20149;-74
2023/04/02 06:00:41;;;;;;;1.80;0.50;;;11.40;99.90;;;;;;7394028;19;20164;-73
2023/04/02 06:03:26;;;;;;;1.60;0.50;;;11.40;99.90;;;;;;7392842;19;20253;-74
2023/04/02 06:05:56;;;;;;;2.10;0.50;;;11.50;99.90;;;;;;7391457;19;20147;-73
2023/04/02 06:08:29;;;;;;;0.53;0.47;;;11.40;99.90;;;;;;7392483;19;20154;-74
2023/04/02 06:11:00;;;;;;;0.80;0.50;;;11.50;99.90;;;;;;7390726;19;20154;-74
2023/04/02 06:13:27;;;;;;;3.33;0.87;;;11.50;99.90;;;;;;7390606;19;20150;-75
2023/04/02 06:15:53;;;;;;;0.60;0.60;;;11.40;99.90;;;;;;7389011;19;20154;-74
2023/04/02 06:18:29;;;;;;;1.27;0.80;;;11.40;99.90;;;;;;7391214;19;20686;-73
2023/04/02 06:20:55;;;;;;;1.83;0.63;;;11.50;99.90;;;;;;7390761;19;20151;-74
2023/04/02 06:23:32;;;;;;;0.50;0.50;;;11.50;99.90;;;;;;7389364;19;20331;-73
2023/04/02 06:26:04;;;;;;;1.30;0.60;;;11.50;99.90;;;;;;7390367;19;20153;-73
2023/04/02 06:29:09;;;;;;;0.70;0.63;;;11.40;99.90;;;;;;7390752;19;20746;-72
2023/04/02 06:31:41;;;;;;;0.67;0.57;;;11.50;99.90;;;;;;7386752;19;20872;-74
2023/04/02 06:34:15;;;;;;;0.77;0.60;;;11.50;99.90;;;;;;7389515;19;20154;-74
2023/04/02 06:36:41;;;;;;;1.53;0.53;;;11.50;99.90;;;;;;7391344;19;20562;-73
2023/04/02 06:39:14;;;;;;;1.77;0.60;;;11.50;99.90;;;;;;7390360;19;20156;-74
2023/04/02 06:41:39;;;;;;;1.07;0.50;;;11.50;99.90;;;;;;7384856;19;20146;-74
2023/04/02 06:44:18;;;;;;;1.40;0.57;;;11.60;99.90;;;;;;7391224;19;20153;-73
2023/04/02 06:46:59;;;;;;;1.07;0.50;;;11.50;99.90;;;;;;7389591;19;20218;-73
2023/04/02 06:49:51;;;;;;;0.83;0.60;;;11.60;99.90;;;;;;7391064;19;20137;-73
2023/04/02 06:52:26;;;;;;;0.50;0.47;;;11.60;99.90;;;;;;7383533;19;20151;-74
2023/04/02 06:54:52;;;;;;;1.13;0.60;;;11.60;99.90;;;;;;7390354;19;20188;-72
2023/04/02 06:57:18;;;;;;;0.40;0.40;;;11.70;99.90;;;;;;7389775;19;20743;-73
2023/04/02 06:59:44;;;;;;;0.93;0.67;;;11.70;99.90;;;;;;7384169;19;20535;-73
2023/04/02 07:02:38;;;;;;;0.67;0.50;;;11.70;99.90;;;;;;7385261;19;20142;-74
2023/04/02 07:05:07;;;;;;;0.63;0.60;;;11.70;99.90;;;;;;7388687;19;20138;-74
2023/04/02 07:07:34;;;;;;;0.50;0.40;;;11.70;99.90;;;;;;7385916;19;20142;-74
2023/04/02 07:09:59;;;;;;;1.37;0.70;;;11.70;99.90;;;;;;7391204;19;20161;-73
2023/04/02 07:12:26;;;;;;;0.50;0.50;;;11.70;99.90;;;;;;7387847;19;20545;-75
2023/04/02 07:14:51;;;;;;;0.67;0.50;;;11.80;99.90;;;;;;7389942;19;20151;-74
2023/04/02 07:17:19;;;;;;;0.50;0.50;;;11.80;99.90;;;;;;7388380;19;20194;-73
2023/04/02 07:19:48;;;;;;;0.50;0.50;;;11.80;99.90;;;;;;7387424;19;20139;-73
2023/04/02 07:22:18;;;;;;;0.70;0.60;;;11.70;99.90;;;;;;7388605;19;20158;-74
2023/04/02 07:24:45;;;;;;;0.50;0.50;;;11.60;99.90;;;;;;7390220;19;20138;-73
2023/04/02 07:27:13;;;;;;;1.00;0.50;;;11.80;99.90;;;;;;7385812;19;20142;-75
2023/04/02 07:29:41;;;;;;;1.13;0.63;;;11.90;99.90;;;;;;7388468;19;20137;-74
2023/04/02 07:32:11;;;;;;;1.90;1.00;;;11.90;99.90;;;;;;7385991;19;20157;-74
2023/04/02 07:34:39;;;;;;;2.13;0.77;;;11.90;99.90;;;;;;7388479;19;20171;-75
2023/04/02 07:37:05;;;;;;;2.40;0.80;;;11.90;99.90;;;;;;7389089;19;20154;-75
2023/04/02 07:39:31;;;;;;;1.53;0.70;;;12.00;99.90;;;;;;7391212;19;20131;-73
2023/04/02 07:41:59;;;;;;;1.10;0.80;;;11.80;99.90;;;;;;7386165;19;20171;-74
2023/04/02 07:44:27;;;;;;;0.50;0.50;;;11.80;99.90;;;;;;7388517;19;20251;-74
2023/04/02 07:46:53;;;;;;;0.70;0.70;;;11.80;99.90;;;;;;7387416;19;20575;-75
2023/04/02 07:49:20;;;;;;;1.17;0.57;;;11.80;99.90;;;;;;7389253;19;20151;-74
2023/04/02 07:51:46;;;;;;;0.50;0.50;;;11.90;99.90;;;;;;7386123;19;20145;-73
2023/04/02 07:54:12;;;;;;;0.80;0.70;;;11.90;99.90;;;;;;7386928;19;20138;-74
2023/04/02 07:56:38;;;;;;;0.50;0.40;;;12.00;99.90;;;;;;7386973;19;20131;-74
2023/04/02 07:59:04;;;;;;;2.10;0.60;;;11.90;99.90;;;;;;7384989;19;20139;-72
2023/04/02 08:01:34;;;;;;;4.60;0.60;;;11.80;99.90;;;;;;7387414;19;20556;-74
2023/04/02 08:04:01;;;;;;;0.50;0.50;;;11.50;99.90;;;;;;7386016;19;20162;-75
2023/04/02 08:06:27;;;;;;;1.70;0.70;;;11.70;99.90;;;;;;7388030;19;20154;-74
2023/04/02 08:08:53;;;;;;;0.60;0.50;;;11.90;99.90;;;;;;7384950;19;20146;-73
2023/04/02 08:11:19;;;;;;;1.13;0.77;;;12.00;99.90;;;;;;7385462;19;20162;-73
2023/04/02 08:13:45;;;;;;;2.33;0.80;;;12.00;99.90;;;;;;7388036;19;20158;-72
2023/04/02 08:16:11;;;;;;;1.03;0.53;;;12.00;99.90;;;;;;7387100;19;20483;-76
2023/04/02 08:18:40;;;;;;;2.50;0.60;;;12.00;99.90;;;;;;7386197;19;20618;-75
2023/04/02 08:21:09;;;;;;;0.97;0.80;;;11.90;99.90;;;;;;7385215;19;20229;-73
2023/04/02 08:23:35;;;;;;;2.07;0.90;;;12.00;99.90;;;;;;7382805;19;20606;-73
2023/04/02 08:26:02;;;;;;;0.93;0.70;;;11.90;99.90;;;;;;7383039;19;20210;-73
2023/04/02 08:28:27;;;;;;;0.93;0.70;;;12.00;99.90;;;;;;7387198;19;20135;-74
2023/04/02 08:30:57;;;;;;;2.20;0.60;;;12.00;99.90;;;;;;7380955;19;20149;-76
2023/04/02 08:33:23;;;;;;;1.90;0.60;;;12.00;99.90;;;;;;7383890;19;20623;-74
2023/04/02 08:35:49;;;;;;;2.50;0.80;;;12.00;99.90;;;;;;7383790;19;20151;-74
2023/04/02 08:38:20;;;;;;;0.60;0.50;;;11.90;99.90;;;;;;7386627;19;20599;-73
2023/04/02 08:40:53;;;;;;;1.20;0.80;;;12.00;99.90;;;;;;7383952;19;20178;-72
2023/04/02 08:43:36;;;;;;;0.63;0.60;;;12.00;99.90;;;;;;7386591;19;20701;-74
2023/04/02 08:46:08;;;;;;;1.47;0.90;;;11.90;99.90;;;;;;7387638;19;20654;-74
2023/04/02 08:48:35;;;;;;;1.20;1.00;;;12.00;99.90;;;;;;7384920;19;20161;-74
2023/04/02 08:51:03;;;;;;;1.47;0.70;;;12.00;99.90;;;;;;7385267;19;20634;-74
2023/04/02 08:53:38;;;;;;;0.87;0.77;;;12.10;99.90;;;;;;7382529;19;20162;-72
2023/04/02 08:56:16;;;;;;;0.50;0.50;;;12.10;99.90;;;;;;7387606;19;20221;-73
2023/04/02 08:58:53;;;;;;;1.60;1.10;;;12.10;99.90;;;;;;7384951;19;20198;-73
2023/04/02 09:01:48;;;;;;;1.57;0.60;;;11.90;99.90;;;;;;7384960;19;20146;-73
2023/04/02 09:04:20;;;;;;;0.60;0.60;;;12.00;99.90;;;;;;7386401;19;20159;-73
2023/04/02 09:06:53;;;;;;;1.80;0.80;;;12.10;99.90;;;;;;7385803;19;20154;-73
2023/04/02 09:09:21;;;;;;;1.47;0.90;;;12.20;99.90;;;;;;7386026;19;20206;-74
2023/04/02 09:12:00;;;;;;;1.77;0.70;;;11.90;99.90;;;;;;7383206;19;20158;-73
2023/04/02 09:14:38;;;;;;;0.63;0.63;;;11.80;99.90;;;;;;7385944;19;20171;-73
2023/04/02 09:17:15;;;;;;;1.07;0.70;;;11.80;99.90;;;;;;7393851;19;20149;-73
2023/04/02 09:19:46;;;;;;;1.33;0.97;;;12.10;99.90;;;;;;7396703;19;20170;-74
2023/04/02 09:22:26;;;;;;;0.70;0.60;;;12.30;99.90;;;;;;7393975;19;20161;-73
2023/04/02 09:24:54;;;;;;;1.43;0.60;;;12.50;99.90;;;;;;7394657;19;20626;-74
2023/04/02 09:27:23;;;;;;;0.93;0.60;;;12.40;99.90;;;;;;7396617;19;20559;-73
2023/04/02 09:29:55;;;;;;;1.40;0.77;;;12.40;99.90;;;;;;7393103;19;20141;-74
2023/04/02 09:32:47;;;;;;;0.80;0.80;;;12.60;99.90;;;;;;7389633;19;20226;-73
2023/04/02 09:35:25;;;;;;;1.77;0.67;;;12.70;99.90;;;;;;7392814;19;20152;-74
2023/04/02 09:38:06;;;;;;;0.70;0.60;;;12.80;99.90;;;;;;7392134;19;20235;-73
2023/04/02 09:40:43;;;;;;;3.70;1.20;;;12.70;99.90;;;;;;7389833;19;20528;-73
2023/04/02 09:43:15;;;;;;;1.40;0.97;;;12.70;99.90;;;;;;7391019;19;20146;-73
2023/04/02 09:45:42;;;;;;;1.60;0.83;;;12.60;99.90;;;;;;7391272;19;20646;-72
2023/04/02 09:48:31;;;;;;;2.37;0.70;;;12.60;99.90;;;;;;7390513;19;20144;-74
2023/04/02 09:51:07;;;;;;;0.70;0.57;;;12.50;99.90;;;;;;7388981;19;20146;-73
2023/04/02 09:53:36;;;;;;;0.93;0.70;;;12.40;99.90;;;;;;7390024;19;20594;-73
2023/04/02 09:56:11;;;;;;;1.40;0.67;;;12.50;99.90;;;;;;7392040;19;20568;-73
2023/04/02 09:58:38;;;;;;;0.83;0.67;;;12.40;99.90;;;;;;7392477;19;20142;-73
2023/04/02 10:01:07;;;;;;;0.73;0.67;;;12.40;99.90;;;;;;7390651;19;20143;-73
2023/04/02 10:03:33;;;;;;;1.97;1.10;;;12.40;99.90;;;;;;7389823;19;20481;-73
2023/04/02 10:06:04;;;;;;;0.77;0.77;;;12.40;99.90;;;;;;7390630;19;20223;-73
2023/04/02 10:08:31;;;;;;;0.90;0.45;;;12.40;99.90;;;;;;7394965;19;20139;-73
2023/04/02 10:11:00;;;;;;;0.70;0.60;;;12.50;99.90;;;;;;7388321;19;20170;-75
2023/04/02 10:13:37;;;;;;;0.87;0.83;;;12.50;99.90;;;;;;7384736;19;20379;-74
2023/04/02 10:16:22;;;;;;;1.15;1.05;;;12.50;99.90;;;;;;7390346;19;20166;-74
2023/04/02 10:19:28;;;;;;;1.03;0.73;;;12.60;99.90;;;;;;7394253;19;20142;-74
2023/04/02 10:21:55;;;;;;;3.17;0.70;;;12.70;99.90;;;;;;7391323;19;20505;-72
2023/04/02 10:24:22;;;;;;;1.10;0.57;;;12.70;99.90;;;;;;7389563;19;20259;-72
2023/04/02 10:27:17;;;;;;;0.80;0.57;;;12.80;99.90;;;;;;7390315;19;20131;-76
2023/04/02 10:30:13;;;;;;;0.73;0.60;;;12.70;99.90;;;;;;7391224;19;20198;-75
2023/04/02 10:32:51;;;;;;;1.05;0.73;;;12.70;99.90;;;;;;7391162;19;20150;-74
2023/04/02 10:35:40;;;;;;;1.77;1.00;;;13.00;99.90;;;;;;7390290;19;20154;-74
2023/04/02 10:38:18;;;;;;;1.30;1.00;;;13.00;99.90;;;;;;7385619;19;20579;-75
2023/04/02 10:41:18;;;;;;;1.60;1.10;;;13.10;99.90;;;;;;7388711;19;20154;-76
2023/04/02 10:44:10;;;;;;;0.80;0.70;;;13.10;99.90;;;;;;7388621;19;20144;-74
2023/04/02 10:46:46;;;;;;;2.90;0.80;;;13.20;99.90;;;;;;7389679;19;20565;-75
2023/04/02 10:49:40;;;;;;;1.30;0.70;;;13.20;99.90;;;;;;7389910;19;20138;-75
2023/04/02 10:52:25;;;;;;;1.40;1.00;;;13.20;99.90;;;;;;7389691;19;20130;-76
2023/04/02 10:54:54;;;;;;;0.87;0.70;;;13.10;99.90;;;;;;7389749;19;20130;-75
2023/04/02 10:57:26;;;;;;;0.77;0.73;;;13.20;99.90;;;;;;7384167;19;20512;-73
2023/04/02 11:00:00;;;;;;;0.60;0.50;;;13.00;99.90;;;;;;7387011;19;20131;-74
2023/04/02 11:02:35;;;;;;;0.83;0.80;;;13.00;99.90;;;;;;7385895;19;20145;-75
2023/04/02 11:05:12;;;;;;;1.08;0.80;;;13.00;99.90;;;;;;7389079;19;20152;-75
2023/04/02 11:07:51;;;;;;;1.27;0.70;;;13.00;99.90;;;;;;7391884;19;20591;-75
2023/04/02 11:10:19;;;;;;;0.97;0.80;;;12.90;99.90;;;;;;7389129;19;20139;-75
2023/04/02 11:13:08;;;;;;;0.70;0.60;;;12.90;99.90;;;;;;7390459;19;20167;-74
2023/04/02 11:15:35;;;;;;;1.00;0.70;;;12.80;99.90;;;;;;7388616;19;20146;-74
2023/04/02 11:18:01;;;;;;;0.60;0.60;;;12.60;99.90;;;;;;7391705;19;20150;-74
2023/04/02 11:20:56;;;;;;;2.30;1.00;;;12.60;99.90;;;;;;7387096;19;20149;-75
2023/04/02 11:23:27;;;;;;;1.50;0.80;;;12.80;99.90;;;;;;7388818;19;20465;-75
2023/04/02 11:26:27;;;;;;;0.70;0.70;;;13.00;99.90;;;;;;7387099;19;20134;-74
2023/04/02 11:29:18;;;;;;;1.00;0.70;;;13.10;99.90;;;;;;7390530;19;20167;-75
2023/04/02 11:31:45;;;;;;;0.80;0.80;;;13.10;99.90;;;;;;7390647;19;20176;-75
2023/04/02 11:34:47;;;;;;;1.10;0.70;;;13.10;99.90;;;;;;7385375;19;20716;-75
2023/04/02 11:37:29;;;;;;;0.67;0.60;;;13.20;99.90;;;;;;7388460;19;20182;-74
2023/04/02 11:39:58;;;;;;;1.63;0.68;;;13.20;99.90;;;;;;7387478;19;20170;-75
2023/04/02 11:42:28;;;;;;;0.50;0.50;;;13.30;99.90;;;;;;7388461;19;20143;-74
2023/04/02 11:44:57;;;;;;;0.57;0.40;;;13.10;99.90;;;;;;7387640;19;20449;-74
2023/04/02 11:47:24;;;;;;;0.60;0.60;;;13.20;99.90;;;;;;7388620;19;20146;-75
2023/04/02 11:49:53;;;;;;;0.55;0.50;;;13.10;99.90;;;;;;7388285;19;20135;-75
2023/04/02 11:52:44;;;;;;;0.50;0.50;;;13.40;99.90;;;;;;7387092;19;20135;-74
2023/04/02 11:55:26;;;;;;;0.90;0.50;;;13.50;99.90;;;;;;7387611;19;20143;-74
2023/04/02 11:58:40;;;;;;;1.17;0.90;;;13.50;99.90;;;;;;7389266;19;20139;-74
2023/04/02 12:01:44;;;;;;;1.67;0.80;;;13.70;99.90;;;;;;7386151;19;20135;-76
2023/04/02 12:04:16;;;;;;;0.50;0.50;;;13.70;99.90;;;;;;7388252;19;20239;-75
2023/04/02 12:07:17;;;;;;;0.40;0.40;;;13.70;99.90;;;;;;7388578;19;20135;-74
2023/04/02 12:09:46;;;;;;;0.40;0.40;;;13.60;99.90;;;;;;7389825;19;20141;-75
2023/04/02 12:12:41;;;;;;;0.57;0.50;;;13.40;99.90;;;;;;7384568;19;20153;-75
2023/04/02 12:15:32;;;;;;;0.55;0.30;;;13.70;99.90;;;;;;7389430;19;20595;-74
2023/04/02 12:18:08;;;;;;;0.63;0.60;;;13.50;99.90;;;;;;7390435;19;20938;-74
2023/04/02 12:20:34;;;;;;;0.40;0.38;;;13.70;99.90;;;;;;7387165;19;20213;-75
2023/04/02 12:23:00;;;;;;;0.40;0.40;;;13.80;99.90;;;;;;7383549;19;20147;-75
2023/04/02 12:25:30;;;;;;;0.83;0.50;;;13.70;99.90;;;;;;7387508;19;20161;-76
2023/04/02 12:28:16;;;;;;;0.50;0.50;;;13.70;99.90;;;;;;7387123;19;20498;-75
2023/04/02 12:30:43;;;;;;;0.40;0.40;;;13.70;99.90;;;;;;7385064;19;20162;-74
2023/04/02 12:33:22;;;;;;;1.20;0.75;;;13.70;99.90;;;;;;7386186;19;20237;-74
2023/04/02 12:35:49;;;;;;;1.65;0.80;;;13.70;99.90;;;;;;7388212;19;20151;-77
2023/04/02 12:38:27;;;;;;;0.93;0.73;;;13.70;99.90;;;;;;7386738;19;20154;-78
2023/04/02 12:41:16;;;;;;;3.00;2.03;;;13.60;99.90;;;;;;7388427;19;20158;-76
2023/04/02 12:43:42;;;;;;;1.20;0.90;;;13.50;99.90;;;;;;7385491;19;20171;-76
2023/04/02 12:46:13;;;;;;;2.07;0.90;;;13.60;99.90;;;;;;7389399;19;20266;-77
2023/04/02 12:48:43;;;;;;;1.10;0.90;;;13.60;99.90;;;;;;7389696;19;20147;-73
2023/04/02 12:51:09;;;;;;;1.63;1.10;;;13.60;99.90;;;;;;7384465;19;20188;-74
2023/04/02 12:53:40;;;;;;;0.80;0.60;;;13.60;99.90;;;;;;7386278;19;20135;-73
2023/04/02 12:56:09;;;;;;;0.88;0.60;;;13.60;99.90;;;;;;7386676;19;20169;-74
2023/04/02 12:58:41;;;;;;;0.67;0.60;;;13.60;99.90;;;;;;7386800;19;20536;-74
2023/04/02 13:01:18;;;;;;;0.87;0.50;;;13.70;99.90;;;;;;7385848;19;20158;-73
2023/04/02 13:03:58;;;;;;;0.70;0.60;;;13.70;99.90;;;;;;7383730;19;20166;-74
2023/04/02 13:06:25;;;;;;;0.53;0.40;;;13.70;99.90;;;;;;7386517;19;20241;-74
2023/04/02 13:08:53;;;;;;;0.43;0.43;;;13.80;99.90;;;;;;7386224;19;20150;-75
2023/04/02 13:11:21;;;;;;;0.57;0.57;;;13.70;99.90;;;;;;7385178;19;20159;-73
2023/04/02 13:13:48;;;;;;;0.90;0.50;;;13.70;99.90;;;;;;7384995;19;20150;-75
2023/04/02 13:16:13;;;;;;;1.00;0.82;;;13.70;99.90;;;;;;7386601;19;20241;-74
2023/04/02 13:18:41;;;;;;;1.20;0.90;;;13.70;99.90;;;;;;7382626;19;20142;-74
2023/04/02 13:21:16;;;;;;;2.03;0.70;;;13.70;99.90;;;;;;7383568;19;20145;-75
2023/04/02 13:23:42;;;;;;;1.37;1.20;;;13.60;99.90;;;;;;7386321;19;20159;-75
2023/04/02 13:26:15;;;;;;;2.10;1.20;;;13.60;99.90;;;;;;7384424;19;20770;-75
2023/04/02 13:28:41;;;;;;;1.08;0.80;;;13.60;99.90;;;;;;7387112;19;20135;-74
2023/04/02 13:31:18;;;;;;;1.10;0.87;;;13.60;99.90;;;;;;7384137;19;20161;-76